MOL Paramount — 3ECH9 — position and weather

sailwx.info

Track history (hours):
 
Tides and Currents Weather Stations Pressure Air Temp Water Temp Dewpoint Dewpoint Depression Visibility Wind Speed Wind Dir Waves Ship Positions

MOL Paramount

Last reported at 2015-May-24 23:33 UTC. Time now 2015-May-25 01:31 UTC.
Position N 22°09' E 114°30'.

Length 293 m; draft 11.4 m.

Type: Cargo ship. MMSI: 371519000.

Date/timePositionNaut miles runAvg speedWind from/ knotsBaromVisibWave heightAir tempDewpointWater temp
2015-May-24 23:33N 22°09' E 114°30'1616.5
2015-May-24 22:33N 22°09' E 114°12'1110.5
2015-May-24 21:33N 22°18' E 114°06'1110.7
2015-May-24 20:32N 22°22' E 113°55'8 0.5
2015-May-24 06:30N 22°29' E 113°52'12 9.0
2015-May-24 05:10N 22°21' E 114°02'610.4
2015-May-24 04:33N 22°17' E 114°07'8 6.6
2015-May-24 03:20N 22°10' E 114°11'2 1.4
2015-May-24 02:15N 22°10' E 114°09'2 2.8
2015-May-24 01:25N 22°12' E 114°10'7 8.1
2015-May-24 00:33N 22°18' E 114°06'3 2.4
2015-May-23 23:31N 22°20' E 114°08'0 0.0
2015-May-23 22:31N 22°20' E 114°08'0 0.0
2015-May-23 21:31N 22°20' E 114°08'0 0.0
2015-May-23 20:31N 22°20' E 114°08'0 0.0
2015-May-23 19:31N 22°20' E 114°08'0 0.0
2015-May-23 18:31N 22°20' E 114°08'0 0.0
2015-May-23 17:28N 22°20' E 114°08'0 0.0
2015-May-23 16:31N 22°20' E 114°08'0 0.0
2015-May-23 15:31N 22°20' E 114°08'0 0.0
2015-May-23 14:28N 22°20' E 114°08'0 0.0
2015-May-23 13:28N 22°20' E 114°08'0 0.0
2015-May-23 12:31N 22°20' E 114°08'0 0.0
2015-May-23 11:31N 22°20' E 114°08'0 0.0
2015-May-23 10:22N 22°20' E 114°08'0 0.0
2015-May-23 09:31N 22°20' E 114°08'0 0.0
2015-May-23 08:31N 22°20' E 114°08'0 0.0
2015-May-23 07:31N 22°20' E 114°08'0 0.0
2015-May-23 06:31N 22°20' E 114°08'0 0.0
2015-May-23 05:25N 22°20' E 114°08'0 0.5
2015-May-23 04:33N 22°19' E 114°07'8 7.6
2015-May-23 03:33N 22°12' E 114°11'1212.5
2015-May-23 02:33N 22°09' E 114°23'  
2015-May-20 06:29N 28°10' E 126°18'79818.1
2015-May-18 10:26N 35°03' E 139°40'1112.6
2015-May-18 09:33N 35°13' E 139°46'1211.9
2015-May-18 08:33N 35°25' E 139°43'1110.7
2015-May-18 07:33N 35°35' E 139°48'2 1.8
2015-May-18 06:28N 35°36' E 139°46'0 0.0
2015-May-18 05:28N 35°36' E 139°46'0 0.0
2015-May-18 04:28N 35°36' E 139°46'0 0.0
2015-May-18 03:31N 35°36' E 139°46'0 0.0
2015-May-18 02:31N 35°36' E 139°46'0 0.0
2015-May-18 01:25N 35°36' E 139°46'0 0.0
2015-May-18 00:28N 35°36' E 139°46'0 0.0
2015-May-17 23:31N 35°36' E 139°46'0 0.0
2015-May-17 22:31N 35°36' E 139°46'0 0.0
2015-May-17 21:31N 35°36' E 139°46'0 0.0
2015-May-17 20:22N 35°36' E 139°46'0 0.0
2015-May-17 19:19N 35°36' E 139°46'0 0.0
2015-May-17 18:31N 35°36' E 139°46'0 0.0
2015-May-17 17:28N 35°36' E 139°46'0 0.0
2015-May-17 16:31N 35°36' E 139°46'0 0.0
2015-May-17 15:31N 35°36' E 139°46'0 0.0
2015-May-17 14:28N 35°36' E 139°46'0 0.0
2015-May-17 13:29N 35°36' E 139°46'0 0.0
2015-May-17 12:16N 35°36' E 139°46'0 0.0
2015-May-17 11:10N 35°36' E 139°46'0 0.0
2015-May-17 10:33N 35°36' E 139°46'0 0.0
2015-May-17 09:32N 35°36' E 139°46'5 4.7
2015-May-17 08:33N 35°33' E 139°50'1111.4
2015-May-17 07:33N 35°23' E 139°46'1211.9
2015-May-17 06:33N 35°11' E 139°47'1010.4
2015-May-17 05:33N 35°01' E 139°43'1612.4
2015-May-17 04:16N 34°50' E 139°57'1318.4
2015-May-17 03:33N 34°54' E 140°12'2419.3
2015-May-17 02:20N 35°08' E 140°36'1417.6
2015-May-17 01:33N 35°17' E 140°49'1717.6
2015-May-17 00:33N 35°29' E 141°04'  
Track history (hours):
 
Tides and Currents Weather Stations Pressure Air Temp Water Temp Dewpoint Dewpoint Depression Visibility Wind Speed Wind Dir Waves Ship Positions

MOL Paramount

Last reported at 2015-May-24 23:33 UTC. Time now 2015-May-25 01:31 UTC.
Position N 22°09' E 114°30'.

Length 293 m; draft 11.4 m.

Type: Cargo ship. MMSI: 371519000.

Date/timePositionNaut miles runAvg speedWind from/ knotsBaromVisibWave heightAir tempDewpointWater temp
2015-May-24 23:33N 22°09' E 114°30'1616.5
2015-May-24 22:33N 22°09' E 114°12'1110.5
2015-May-24 21:33N 22°18' E 114°06'1110.7
2015-May-24 20:32N 22°22' E 113°55'8 0.5
2015-May-24 06:30N 22°29' E 113°52'12 9.0
2015-May-24 05:10N 22°21' E 114°02'610.4
2015-May-24 04:33N 22°17' E 114°07'8 6.6
2015-May-24 03:20N 22°10' E 114°11'2 1.4
2015-May-24 02:15N 22°10' E 114°09'2 2.8
2015-May-24 01:25N 22°12' E 114°10'7 8.1
2015-May-24 00:33N 22°18' E 114°06'3 2.4
2015-May-23 23:31N 22°20' E 114°08'0 0.0
2015-May-23 22:31N 22°20' E 114°08'0 0.0
2015-May-23 21:31N 22°20' E 114°08'0 0.0
2015-May-23 20:31N 22°20' E 114°08'0 0.0
2015-May-23 19:31N 22°20' E 114°08'0 0.0
2015-May-23 18:31N 22°20' E 114°08'0 0.0
2015-May-23 17:28N 22°20' E 114°08'0 0.0
2015-May-23 16:31N 22°20' E 114°08'0 0.0
2015-May-23 15:31N 22°20' E 114°08'0 0.0
2015-May-23 14:28N 22°20' E 114°08'0 0.0
2015-May-23 13:28N 22°20' E 114°08'0 0.0
2015-May-23 12:31N 22°20' E 114°08'0 0.0
2015-May-23 11:31N 22°20' E 114°08'0 0.0
2015-May-23 10:22N 22°20' E 114°08'0 0.0
2015-May-23 09:31N 22°20' E 114°08'0 0.0
2015-May-23 08:31N 22°20' E 114°08'0 0.0
2015-May-23 07:31N 22°20' E 114°08'0 0.0
2015-May-23 06:31N 22°20' E 114°08'0 0.0
2015-May-23 05:25N 22°20' E 114°08'0 0.5
2015-May-23 04:33N 22°19' E 114°07'8 7.6
2015-May-23 03:33N 22°12' E 114°11'1212.5
2015-May-23 02:33N 22°09' E 114°23'  
2015-May-20 06:29N 28°10' E 126°18'79818.1
2015-May-18 10:26N 35°03' E 139°40'1112.6
2015-May-18 09:33N 35°13' E 139°46'1211.9
2015-May-18 08:33N 35°25' E 139°43'1110.7
2015-May-18 07:33N 35°35' E 139°48'2 1.8
2015-May-18 06:28N 35°36' E 139°46'0 0.0
2015-May-18 05:28N 35°36' E 139°46'0 0.0
2015-May-18 04:28N 35°36' E 139°46'0 0.0
2015-May-18 03:31N 35°36' E 139°46'0 0.0
2015-May-18 02:31N 35°36' E 139°46'0 0.0
2015-May-18 01:25N 35°36' E 139°46'0 0.0
2015-May-18 00:28N 35°36' E 139°46'0 0.0
2015-May-17 23:31N 35°36' E 139°46'0 0.0
2015-May-17 22:31N 35°36' E 139°46'0 0.0
2015-May-17 21:31N 35°36' E 139°46'0 0.0
2015-May-17 20:22N 35°36' E 139°46'0 0.0
2015-May-17 19:19N 35°36' E 139°46'0 0.0
2015-May-17 18:31N 35°36' E 139°46'0 0.0
2015-May-17 17:28N 35°36' E 139°46'0 0.0
2015-May-17 16:31N 35°36' E 139°46'0 0.0
2015-May-17 15:31N 35°36' E 139°46'0 0.0
2015-May-17 14:28N 35°36' E 139°46'0 0.0
2015-May-17 13:29N 35°36' E 139°46'0 0.0
2015-May-17 12:16N 35°36' E 139°46'0 0.0
2015-May-17 11:10N 35°36' E 139°46'0 0.0
2015-May-17 10:33N 35°36' E 139°46'0 0.0
2015-May-17 09:32N 35°36' E 139°46'5 4.7
2015-May-17 08:33N 35°33' E 139°50'1111.4
2015-May-17 07:33N 35°23' E 139°46'1211.9
2015-May-17 06:33N 35°11' E 139°47'1010.4
2015-May-17 05:33N 35°01' E 139°43'1612.4
2015-May-17 04:16N 34°50' E 139°57'1318.4
2015-May-17 03:33N 34°54' E 140°12'2419.3
2015-May-17 02:20N 35°08' E 140°36'1417.6
2015-May-17 01:33N 35°17' E 140°49'1717.6
2015-May-17 00:33N 35°29' E 141°04'  

Dump ship's entire track history